Wind from 130 at 11 knots gusting 13

Wave height 0.5 meters (1 feet), 10 second period

Air temperature 7.2° C
Water temperature 7.3° C

Last reported at 2014-Apr-18 16:00 UTC.
Time now 2014-Apr-18 18:21 UTC

Location: N 53°36' W 131°06'.
View on Google Maps.

See reports from other nearby stations

Tides Stations Pressure Air Temp Water Temp Dewpoint Dewpoint depression Visibility Wind Speed Wind Dir Waves Ship positions

  
sailing weather and tide predictions

Current Weather: station 46183

date/time (UTC)wind fromknots sea level pressurealtimeterstation pressurevisibilityair tempwater tempwave heightnotes
2014-Apr-18 16:00 130 11 gusting 13 7.2 7.3 0.5
2014-Apr-18 15:00 140 7 gusting 9 7.3 7.3 0.5
2014-Apr-18 14:00 160 7 gusting 9 7.1 7.3 0.6
2014-Apr-18 13:00 190 9 gusting 9 6.9 7.3 0.5
2014-Apr-18 12:00 190 7 gusting 9 6.8 7.2 0.6
2014-Apr-18 11:00 200 7 gusting 9 6.9 7.2 0.6
2014-Apr-18 10:00 220 7 gusting 9 6.8 7.2 0.7
2014-Apr-18 09:00 220 7 gusting 7 6.9 7.3 0.7
2014-Apr-18 07:00 230 9 gusting 11 7.0 7.3 0.9
2014-Apr-18 06:00 230 11 gusting 11 7.1 7.3 0.9
2014-Apr-18 05:00 240 7 gusting 9 6.9 7.3 0.9
2014-Apr-18 04:00 230 9 gusting 11 7.0 7.3 1.0
2014-Apr-18 03:00 240 11 gusting 13 7.0 7.3 1.0
2014-Apr-18 02:00 230 11 gusting 15 7.1 7.4 1.1
2014-Apr-18 01:00 220 13 gusting 17 7.3 7.4 1.3
2014-Apr-18 00:00 210 15 gusting 17 7.6 7.4 1.4
2014-Apr-17 23:00 210 11 gusting 13 7.4 7.4 1.6
2014-Apr-17 22:00 200 11 gusting 13 7.6 7.3 1.8
2014-Apr-17 21:00 190 13 gusting 15 7.5 7.3 1.8
2014-Apr-17 20:00 190 15 gusting 19 7.5 7.3 1.9
2014-Apr-17 19:00 190 15 gusting 17 7.6 7.3 2.1
2014-Apr-17 18:00 180 15 gusting 19 7.7 7.3 2.2
2014-Apr-17 17:00 180 15 gusting 21 7.6 7.2 2.2
2014-Apr-17 14:00 200 15 gusting 17 7.4 7.2 2.6
2014-Apr-17 13:00 220 13 gusting 15 7.4 7.2 3.2
2014-Apr-17 12:00 190 15 gusting 21 7.8 7.2 3.8
2014-Apr-17 11:00 140 27 gusting 33 7.7 7.2 3.6
2014-Apr-17 10:00 140 31 gusting 40 7.9 7.2 3.9
2014-Apr-17 09:00 140 29
2014-Apr-17 07:00 130 27 gusting 34 7.5 7.2 2.4
2014-Apr-17 06:00 120 27 gusting 34 7.4 7.2 2.2
2014-Apr-17 05:00 140 21 gusting 27 7.6 7.1 1.9
2014-Apr-17 04:00 150 19 gusting 23 7.6 7.1 2.0
2014-Apr-17 03:00 140 19 gusting 23 7.5 7.1 2.1
2014-Apr-17 01:00 140 21 gusting 25 7.6 7.1 2.2
2014-Apr-17 00:00 140 23 gusting 29 7.4 7.2 2.5
2014-Apr-16 23:00 130 27 7.2
2014-Apr-16 22:00 120 25 gusting 33 7.2 7.2 1.9
2014-Apr-16 21:00 120 23 gusting 27 7.1 7.2 1.7
2014-Apr-16 20:00 120 19 gusting 23 6.9 7.2 1.6
2014-Apr-16 19:00 120 19 gusting 23 7.0 7.1 1.5
2014-Apr-16 18:00 130 19 gusting 23 7.1 7.1 1.2